Time;durP1;ratioP1;P1;durP2;ratioP2;P2;SDS_P1;SDS_P2;PMS_P1;PMS_P2;Temp;Humidity;BMP_temperature;BMP_pressure;BME280_temperature;BME280_humidity;BME280_pressure;Samples;Min_cycle;Max_cycle;Signal;HPM_P1;HPM_P2
2021/08/23 00:01:47;;;;;;;;;6.75;6.75;;;;;23.20;48.70;101791.00;5058103;28;45385;-54
2021/08/23 00:04:14;;;;;;;;;6.25;6.25;;;;;23.20;48.71;101796.31;5057535;28;45209;-51
2021/08/23 00:06:39;;;;;;;;;7.75;5.00;;;;;23.21;48.54;101799.78;5057859;28;45618;-49
2021/08/23 00:09:04;;;;;;;;;5.25;5.25;;;;;23.20;48.67;101792.81;5058045;28;45438;-51
2021/08/23 00:11:30;;;;;;;;;6.00;6.00;;;;;23.20;48.15;101795.47;5057944;28;45407;-46
2021/08/23 00:13:55;;;;;;;;;6.75;6.00;;;;;23.21;48.40;101789.22;5057296;28;45389;-55
2021/08/23 00:16:20;;;;;;;;;5.00;5.00;;;;;23.24;48.59;101791.72;5057514;28;45450;-50
2021/08/23 00:18:47;;;;;;;;;7.25;5.50;;;;;23.24;48.50;101797.00;5057561;28;45426;-50
2021/08/23 00:21:20;;;;;;;;;4.75;4.75;;;;;23.25;48.39;101790.78;5057822;28;45390;-52
2021/08/23 00:23:51;;;;;;;;;7.00;5.50;;;;;23.24;48.52;101786.41;5057474;28;45526;-50
2021/08/23 00:26:16;;;;;;;;;7.00;5.00;;;;;23.25;48.62;101790.78;5057283;28;45770;-46
2021/08/23 00:28:42;;;;;;;;;7.00;6.00;;;;;23.24;48.50;101786.41;5057548;28;45638;-52
2021/08/23 00:31:07;;;;;;;;;6.00;4.75;;;;;23.23;48.60;101788.22;5057790;28;45542;-47
2021/08/23 00:33:32;;;;;;;;;5.50;4.25;;;;;23.24;48.38;101787.28;5057114;28;46405;-48
2021/08/23 00:35:58;;;;;;;;;6.00;4.50;;;;;23.23;48.65;101790.88;5057071;28;47628;-54
2021/08/23 00:38:23;;;;;;;;;6.25;5.75;;;;;23.24;48.57;101787.28;5056846;28;45190;-51
2021/08/23 00:40:48;;;;;;;;;6.00;5.50;;;;;23.23;48.50;101787.34;5057158;28;45280;-46
2021/08/23 00:43:14;;;;;;;;;5.25;5.25;;;;;23.24;48.42;101794.34;5057121;28;46342;-53
2021/08/23 00:45:39;;;;;;;;;4.25;4.25;;;;;23.23;48.79;101784.69;5057408;28;45237;-47
2021/08/23 00:48:05;;;;;;;;;5.00;4.25;;;;;23.24;48.70;101789.06;5057082;28;45564;-52
2021/08/23 00:50:30;;;;;;;;;4.75;4.50;;;;;23.22;48.88;101781.22;5057524;28;46097;-51
2021/08/23 00:52:57;;;;;;;;;5.25;5.25;;;;;23.23;48.78;101785.56;5056755;28;46453;-52
2021/08/23 00:55:23;;;;;;;;;4.00;4.00;;;;;23.25;48.39;101777.56;5056951;28;45821;-47
2021/08/23 00:57:48;;;;;;;;;6.25;5.50;;;;;23.24;48.78;101789.94;5057056;28;45366;-50
2021/08/23 01:00:14;;;;;;;;;5.50;4.50;;;;;23.24;48.97;101789.06;5056793;28;45261;-45
2021/08/23 01:02:54;;;;;;;;;4.00;4.00;;;;;23.23;48.70;101776.78;5057176;28;46105;-49
2021/08/23 01:05:26;;;;;;;;;7.00;5.00;;;;;23.23;48.69;101772.34;5056928;28;45734;-51
2021/08/23 01:07:57;;;;;;;;;5.00;4.00;;;;;23.23;48.42;101784.69;5056916;28;45238;-51
2021/08/23 01:10:29;;;;;;;;;4.00;4.00;;;;;23.22;48.92;101785.63;5057083;28;45438;-53
2021/08/23 01:12:55;;;;;;;;;6.00;4.50;;;;;23.20;48.91;101767.22;5056680;28;46137;-53
2021/08/23 01:15:22;;;;;;;;;5.50;4.25;;;;;23.22;48.77;101775.06;5056634;28;45767;-45
2021/08/23 01:17:47;;;;;;;;;5.50;4.75;;;;;23.21;48.92;101781.28;5056884;28;45364;-47
2021/08/23 01:20:12;;;;;;;;;7.00;5.00;;;;;23.20;48.98;101776.94;5056808;28;45573;-46
2021/08/23 01:22:47;;;;;;;;;3.00;3.00;;;;;23.20;48.77;101777.78;5056805;28;46475;-47
2021/08/23 01:25:22;;;;;;;;;5.00;4.25;;;;;23.20;48.97;101780.44;5056501;28;45915;-46
2021/08/23 01:28:01;;;;;;;;;4.00;4.00;;;;;23.20;49.13;101782.25;5056818;28;45779;-51
2021/08/23 01:30:33;;;;;;;;;4.00;4.00;;;;;23.19;48.99;101781.38;5056755;28;45425;-51
2021/08/23 01:32:59;;;;;;;;;8.50;5.50;;;;;23.19;48.94;101785.78;5055087;28;48826;-51
2021/08/23 01:35:25;;;;;;;;;4.50;4.50;;;;;23.19;49.05;101785.78;5056283;28;45263;-52
2021/08/23 01:37:51;;;;;;;;;5.00;5.00;;;;;23.20;48.92;101782.25;5056386;28;45297;-50
2021/08/23 01:40:16;;;;;;;;;8.25;5.75;;;;;23.20;49.01;101785.72;5056521;28;45556;-52
2021/08/23 01:42:43;;;;;;;;;6.75;4.75;;;;;23.19;48.91;101784.00;5056436;28;45357;-50
2021/08/23 01:45:09;;;;;;;;;6.00;4.75;;;;;23.20;49.05;101787.53;5056594;28;45653;-50
2021/08/23 01:47:34;;;;;;;;;3.25;3.00;;;;;23.17;49.19;101786.72;5056471;28;45355;-54
2021/08/23 01:49:59;;;;;;;;;5.00;5.00;;;;;23.16;49.04;101786.78;5057913;28;45588;-52
2021/08/23 01:52:26;;;;;;;;;5.00;5.00;;;;;23.19;48.89;101785.78;5058293;28;48196;-49
2021/08/23 01:54:51;;;;;;;;;4.75;4.75;;;;;23.19;49.22;101788.44;5059745;28;45426;-48
2021/08/23 01:57:18;;;;;;;;;4.25;4.25;;;;;23.17;49.06;101789.34;5059729;28;45307;-49
2021/08/23 01:59:45;;;;;;;;;4.00;4.00;;;;;23.17;49.19;101784.06;5060232;28;45324;-52
2021/08/23 02:02:10;;;;;;;;;5.50;5.50;;;;;23.17;49.32;101785.84;5059874;28;46561;-54
2021/08/23 02:04:36;;;;;;;;;5.25;5.25;;;;;23.13;49.13;101779.88;5059474;28;45313;-54
2021/08/23 02:07:01;;;;;;;;;4.50;4.00;;;;;23.16;49.26;101782.34;5059719;28;45311;-50
2021/08/23 02:09:26;;;;;;;;;3.00;3.00;;;;;23.16;49.23;101790.28;5041826;28;45288;-53
2021/08/23 02:11:52;;;;;;;;;5.75;4.00;;;;;23.15;49.19;101788.56;5059459;28;45588;-53
2021/08/23 02:14:17;;;;;;;;;4.75;4.00;;;;;23.15;49.28;101787.75;5059379;28;45388;-50
2021/08/23 02:16:42;;;;;;;;;4.00;4.00;;;;;23.16;49.07;101784.13;5059952;28;45269;-47
2021/08/23 02:19:08;;;;;;;;;4.00;4.00;;;;;23.15;49.34;101782.44;5059775;28;45681;-52
2021/08/23 02:21:55;;;;;;;;;5.50;5.25;;;;;23.15;49.08;101787.75;5059238;28;45407;-46
2021/08/23 02:24:21;;;;;;;;;5.75;5.50;;;;;23.14;49.11;101789.50;5059143;28;45930;-52
2021/08/23 02:26:47;;;;;;;;;7.00;4.00;;;;;23.13;48.83;101797.53;5059333;28;45301;-49
2021/08/23 02:29:13;;;;;;;;;6.25;4.00;;;;;23.13;49.46;101792.25;5059776;28;45434;-48
2021/08/23 02:31:39;;;;;;;;;3.00;3.00;;;;;23.12;49.48;101786.09;5059320;28;46317;-51
2021/08/23 02:34:04;;;;;;;;;7.00;5.25;;;;;23.13;49.00;101787.78;5058971;28;45944;-52
2021/08/23 02:36:30;;;;;;;;;8.75;6.00;;;;;23.12;49.48;101793.19;5059407;28;45229;-55
2021/08/23 02:38:56;;;;;;;;;5.25;4.25;;;;;23.13;49.38;101792.25;5059598;28;45723;-49
2021/08/23 02:41:22;;;;;;;;;5.00;5.00;;;;;23.12;49.08;101788.72;5058935;28;46345;-51
2021/08/23 02:43:47;;;;;;;;;4.50;4.50;;;;;23.11;49.41;101784.38;5059098;28;45408;-50
2021/08/23 02:46:12;;;;;;;;;5.50;5.00;;;;;23.11;49.33;101783.53;5059416;28;45244;-50
2021/08/23 02:48:38;;;;;;;;;5.00;4.00;;;;;23.12;49.55;101794.00;5059164;28;45342;-54
2021/08/23 02:51:03;;;;;;;;;6.00;6.00;;;;;23.11;49.38;101787.00;5058816;28;45387;-53
2021/08/23 02:53:29;;;;;;;;;4.00;4.00;;;;;23.13;49.42;101789.59;5058799;28;45331;-52
2021/08/23 02:55:54;;;;;;;;;4.00;4.00;;;;;23.12;49.43;101786.09;5058972;28;45319;-48
2021/08/23 02:58:19;;;;;;;;;6.00;5.25;;;;;23.10;49.50;101773.88;5058742;28;45551;-47
2021/08/23 03:00:44;;;;;;;;;5.75;4.50;;;;;23.11;49.75;101776.44;5040737;28;48560;-52
2021/08/23 03:03:10;;;;;;;;;4.50;3.25;;;;;23.11;49.51;101781.72;5058691;28;45521;-47
2021/08/23 03:05:35;;;;;;;;;5.00;4.25;;;;;23.11;49.62;101778.25;5058739;28;45400;-46
2021/08/23 03:08:00;;;;;;;;;5.75;5.25;;;;;23.12;49.37;101782.59;5058762;28;45351;-47
2021/08/23 03:10:26;;;;;;;;;4.75;4.75;;;;;23.11;49.62;101781.72;5058409;28;50430;-50
2021/08/23 03:12:51;;;;;;;;;6.50;4.00;;;;;23.11;49.37;101783.53;5058519;28;45366;-50
2021/08/23 03:15:17;;;;;;;;;4.25;4.25;;;;;23.11;49.28;101783.53;5041056;28;45327;-53
2021/08/23 03:17:42;;;;;;;;;6.75;4.25;;;;;23.11;49.50;101787.00;5058916;28;45331;-55
2021/08/23 03:20:08;;;;;;;;;5.75;5.00;;;;;23.10;49.75;101780.00;5058466;28;46189;-51
2021/08/23 03:22:33;;;;;;;;;5.00;5.00;;;;;23.07;49.50;101774.91;5058503;28;45429;-53
2021/08/23 03:24:58;;;;;;;;;7.00;5.00;;;;;23.10;49.83;101787.94;5058629;28;45295;-55
2021/08/23 03:27:24;;;;;;;;;5.00;4.25;;;;;23.08;49.74;101779.25;5058760;28;45461;-51
2021/08/23 03:29:53;;;;;;;;;6.00;6.00;;;;;23.09;49.70;101783.63;5058161;28;46279;-52
2021/08/23 03:32:19;;;;;;;;;4.25;4.25;;;;;23.09;49.91;101780.97;5058208;28;45585;-48
2021/08/23 03:34:45;;;;;;;;;4.25;4.25;;;;;23.06;49.68;101775.84;5058511;28;45316;-51
2021/08/23 03:37:10;;;;;;;;;6.00;6.00;;;;;23.08;49.67;101786.31;5058325;28;45398;-47
2021/08/23 03:39:36;;;;;;;;;4.75;4.75;;;;;23.09;49.76;101783.63;5058021;28;46703;-52
2021/08/23 03:42:01;;;;;;;;;4.00;4.00;;;;;23.08;49.85;101784.56;5058154;28;45462;-49
2021/08/23 03:44:26;;;;;;;;;6.75;5.75;;;;;23.08;50.04;101779.25;5058329;28;45302;-56
2021/08/23 03:46:52;;;;;;;;;6.50;5.50;;;;;23.09;49.96;101780.09;5058449;28;45395;-55
2021/08/23 03:49:18;;;;;;;;;5.25;5.25;;;;;23.09;49.92;101782.75;5058268;28;45441;-50
2021/08/23 03:51:44;;;;;;;;;5.75;5.75;;;;;23.09;49.86;101775.69;5057907;28;45336;-48
2021/08/23 03:54:09;;;;;;;;;8.00;6.00;;;;;23.08;49.85;101781.91;5058153;28;45432;-52
2021/08/23 03:56:35;;;;;;;;;6.00;5.00;;;;;23.08;49.87;101787.19;5058285;28;45259;-50
2021/08/23 03:59:00;;;;;;;;;6.00;6.00;;;;;23.07;50.08;101782.84;5057645;28;47171;-48
2021/08/23 04:01:25;;;;;;;;;3.25;3.00;;;;;23.07;50.00;101780.19;5057731;28;45260;-53
2021/08/23 04:03:51;;;;;;;;;5.50;4.00;;;;;23.07;50.04;101777.56;5057901;28;45305;-54
2021/08/23 04:06:16;;;;;;;;;4.50;4.50;;;;;23.06;49.85;101775.84;5040231;28;45465;-53
2021/08/23 04:08:42;;;;;;;;;5.00;5.00;;;;;23.06;50.13;101778.47;5057625;28;45423;-53
2021/08/23 04:11:11;;;;;;;;;4.50;4.50;;;;;23.06;50.20;101774.97;5039660;28;45914;-50
2021/08/23 04:13:36;;;;;;;;;8.25;5.25;;;;;23.04;50.19;101771.56;5056885;28;45427;-52
2021/08/23 04:16:03;;;;;;;;;4.00;4.00;;;;;23.07;49.87;101777.56;5058009;28;45394;-50
2021/08/23 04:18:28;;;;;;;;;6.00;4.25;;;;;23.06;50.25;101774.97;5057419;28;46257;-49
2021/08/23 04:20:53;;;;;;;;;7.00;4.00;;;;;23.06;50.18;101781.13;5057531;28;45277;-51
2021/08/23 04:23:19;;;;;;;;;5.50;5.50;;;;;23.06;50.62;101778.47;5057878;28;45443;-54
2021/08/23 04:25:44;;;;;;;;;5.50;4.00;;;;;23.03;50.46;101769.84;5057857;28;45638;-52
2021/08/23 04:28:09;;;;;;;;;3.75;3.75;;;;;23.06;50.45;101782.91;5057362;28;45376;-52
2021/08/23 04:30:35;;;;;;;;;5.50;5.50;;;;;23.06;50.40;101769.69;5057325;28;45249;-46
2021/08/23 04:33:00;;;;;;;;;6.50;4.75;;;;;23.05;50.53;101778.53;5057331;28;45350;-49
2021/08/23 04:35:25;;;;;;;;;5.25;5.00;;;;;23.06;50.19;101778.47;5057761;28;45317;-49
2021/08/23 04:37:51;;;;;;;;;5.50;3.75;;;;;23.07;50.32;101788.13;5057371;28;45332;-50
2021/08/23 04:40:16;;;;;;;;;7.00;5.75;;;;;23.07;50.53;101788.13;5057370;28;45265;-46
2021/08/23 04:42:41;;;;;;;;;4.25;3.75;;;;;23.08;50.29;101789.84;5057261;28;45182;-48
2021/08/23 04:45:07;;;;;;;;;8.00;7.00;;;;;23.08;50.73;101787.19;5057395;28;45593;-46
2021/08/23 04:47:32;;;;;;;;;6.00;3.50;;;;;23.09;50.67;101788.91;5056814;28;45384;-49
2021/08/23 04:49:58;;;;;;;;;7.75;6.00;;;;;23.09;50.65;101788.91;5056986;28;45641;-48
2021/08/23 04:52:25;;;;;;;;;8.25;5.00;;;;;23.11;50.62;101789.66;5057085;28;45504;-47
2021/08/23 04:54:50;;;;;;;;;6.00;6.00;;;;;23.12;50.85;101796.66;5057605;28;45502;-49
2021/08/23 04:57:16;;;;;;;;;5.75;5.00;;;;;23.13;50.88;101798.38;5056811;28;46524;-48
2021/08/23 04:59:42;;;;;;;;;10.50;8.25;;;;;23.14;51.13;101796.59;5056642;28;45452;-49
2021/08/23 05:02:07;;;;;;;;;7.00;6.75;;;;;23.15;51.01;101804.44;5057009;28;45505;-51
2021/08/23 05:04:32;;;;;;;;;9.75;6.00;;;;;23.17;51.29;101805.22;5057271;28;45773;-47
2021/08/23 05:06:58;;;;;;;;;6.50;6.50;;;;;23.16;51.30;101808.81;5056620;28;45406;-55
2021/08/23 05:09:23;;;;;;;;;10.25;8.00;;;;;23.17;51.21;101810.50;5056715;28;45394;-48
2021/08/23 05:11:48;;;;;;;;;7.25;7.25;;;;;23.17;51.39;101821.09;5057282;28;45438;-56
2021/08/23 05:14:14;;;;;;;;;6.25;6.25;;;;;23.19;51.27;101813.09;5055702;28;45627;-52
2021/08/23 05:16:39;;;;;;;;;7.25;7.00;;;;;23.17;51.26;101818.44;5056491;28;46145;-50
2021/08/23 05:19:05;;;;;;;;;8.00;6.50;;;;;23.19;51.16;101817.53;5056588;28;45323;-50
2021/08/23 05:21:31;;;;;;;;;6.75;5.25;;;;;23.16;51.12;101818.50;5056671;28;45371;-47
2021/08/23 05:23:56;;;;;;;;;8.00;6.00;;;;;23.15;51.20;101815.03;5055513;28;45520;-48
2021/08/23 05:26:21;;;;;;;;;10.75;9.25;;;;;23.15;51.43;101817.66;5056786;28;46321;-51
2021/08/23 05:28:47;;;;;;;;;9.25;7.00;;;;;23.14;50.93;101815.97;5056420;28;45375;-48
2021/08/23 05:31:12;;;;;;;;;7.50;6.00;;;;;23.15;51.40;101819.47;5056509;28;45464;-51
2021/08/23 05:33:38;;;;;;;;;8.00;6.50;;;;;23.13;51.05;101821.34;5056607;28;45569;-55
2021/08/23 05:36:04;;;;;;;;;7.75;7.50;;;;;23.12;50.87;101819.63;5056513;28;45445;-52
2021/08/23 05:38:29;;;;;;;;;8.25;7.75;;;;;23.11;51.26;101821.38;5056194;28;45362;-51
2021/08/23 05:40:55;;;;;;;;;10.00;8.25;;;;;23.10;50.88;101830.25;5056483;28;45237;-50
2021/08/23 05:43:20;;;;;;;;;7.00;7.00;;;;;23.11;51.43;101825.84;5056919;28;45404;-48
2021/08/23 05:45:45;;;;;;;;;8.00;7.00;;;;;23.10;51.28;101830.25;5056112;28;46173;-50
2021/08/23 05:48:11;;;;;;;;;11.00;8.50;;;;;23.09;51.64;101833.00;5056141;28;45356;-51
2021/08/23 05:50:37;;;;;;;;;9.75;8.00;;;;;23.07;51.19;101833.06;5056378;28;45360;-52
2021/08/23 05:53:02;;;;;;;;;11.00;9.50;;;;;23.07;51.05;101833.06;5056323;28;45645;-47
2021/08/23 05:55:28;;;;;;;;;9.75;8.75;;;;;23.06;51.35;101834.00;5056031;28;46133;-49
2021/08/23 05:57:53;;;;;;;;;9.25;9.25;;;;;23.05;51.57;101840.22;5056440;28;45403;-49
2021/08/23 06:00:19;;;;;;;;;8.50;8.50;;;;;23.05;51.20;101832.28;5055856;28;45344;-52
2021/08/23 06:02:45;;;;;;;;;7.25;7.25;;;;;23.05;51.26;101845.50;5056327;28;45442;-54
2021/08/23 06:05:11;;;;;;;;;9.00;8.50;;;;;23.04;51.43;101843.78;5056070;28;45388;-47
2021/08/23 06:07:36;;;;;;;;;12.25;11.00;;;;;23.03;51.38;101852.66;5055796;28;45234;-48
2021/08/23 06:10:03;;;;;;;;;10.00;8.75;;;;;23.01;51.17;101851.88;5056147;28;45336;-48
2021/08/23 06:12:28;;;;;;;;;9.50;8.50;;;;;23.01;50.96;101852.75;5056164;28;45598;-50
2021/08/23 06:14:53;;;;;;;;;10.00;10.00;;;;;23.01;51.67;101854.50;5037888;28;47231;-48
2021/08/23 06:17:18;;;;;;;;;9.25;8.25;;;;;23.02;51.58;101861.53;5037699;28;45260;-51
2021/08/23 06:19:44;;;;;;;;;10.50;10.00;;;;;23.01;51.30;101857.16;5055775;28;45261;-48
2021/08/23 06:22:09;;;;;;;;;10.00;9.00;;;;;23.02;51.59;101866.81;5055974;28;45467;-50
2021/08/23 06:24:35;;;;;;;;;10.50;10.00;;;;;23.01;51.33;101857.16;5055624;28;45334;-47
2021/08/23 06:27:00;;;;;;;;;13.00;12.00;;;;;23.03;51.55;101865.03;5055645;28;45556;-48
2021/08/23 06:29:25;;;;;;;;;10.25;10.25;;;;;23.03;51.40;101867.69;5056097;28;45568;-49
2021/08/23 06:31:51;;;;;;;;;21.00;12.00;;;;;23.01;51.20;101857.16;5055841;28;45304;-48
2021/08/23 06:34:16;;;;;;;;;14.25;9.00;;;;;23.02;51.08;101864.16;5055305;28;45372;-51
2021/08/23 06:36:44;;;;;;;;;14.00;12.25;;;;;23.00;51.28;101861.59;5057793;28;45292;-49
2021/08/23 06:39:10;;;;;;;;;13.00;10.00;;;;;22.99;51.02;101862.53;5059115;28;45403;-50
2021/08/23 06:41:35;;;;;;;;;16.25;14.75;;;;;22.97;50.76;101866.19;5041293;28;45515;-48
2021/08/23 06:44:00;;;;;;;;;12.75;12.50;;;;;22.93;50.48;101860.19;5040837;28;47327;-55
2021/08/23 06:46:26;;;;;;;;;11.50;11.50;;;;;22.90;50.89;101862.13;5059300;28;45237;-54
2021/08/23 06:48:51;;;;;;;;;13.50;13.00;;;;;22.85;50.56;101855.28;5058989;28;45339;-51
2021/08/23 06:51:20;;;;;;;;;10.25;8.25;;;;;22.82;50.56;101859.88;5059233;28;45558;-50
2021/08/23 06:53:47;;;;;;;;;11.25;10.25;;;;;22.79;50.51;101860.88;5058486;28;46943;-56
2021/08/23 06:56:13;;;;;;;;;9.25;9.25;;;;;22.78;50.62;101861.78;5058949;28;45460;-51
2021/08/23 06:58:38;;;;;;;;;10.00;9.25;;;;;22.75;50.98;101861.97;5058543;28;45786;-53
2021/08/23 07:01:03;;;;;;;;;10.50;10.50;;;;;22.76;50.42;101855.75;5059167;28;45287;-51
2021/08/23 07:03:29;;;;;;;;;8.50;8.00;;;;;22.73;50.50;101858.53;5058269;28;45591;-52
2021/08/23 07:05:54;;;;;;;;;11.25;10.75;;;;;22.73;50.68;101869.09;5058932;28;45365;-51
2021/08/23 07:08:20;;;;;;;;;10.75;8.50;;;;;22.69;50.49;101863.13;5058778;28;45421;-49
2021/08/23 07:10:45;;;;;;;;;13.25;10.00;;;;;22.70;50.74;101866.59;5058793;28;45550;-49
2021/08/23 07:13:10;;;;;;;;;11.00;9.50;;;;;22.68;50.81;101865.81;5058313;28;46450;-53
2021/08/23 07:15:36;;;;;;;;;14.25;11.75;;;;;22.68;50.83;101866.69;5058539;28;45237;-51
2021/08/23 07:18:01;;;;;;;;;10.25;8.75;;;;;22.65;50.87;101866.81;5058520;28;45301;-53
2021/08/23 07:20:26;;;;;;;;;9.50;9.50;;;;;22.62;51.01;101876.69;5059014;28;45628;-53
2021/08/23 07:22:52;;;;;;;;;10.00;7.50;;;;;22.58;51.01;101875.13;5058476;28;45333;-54
2021/08/23 07:25:17;;;;;;;;;11.50;11.25;;;;;22.52;50.98;101874.50;5058393;28;45277;-55
2021/08/23 07:27:43;;;;;;;;;9.75;9.75;;;;;22.49;51.19;101871.16;5058533;28;45213;-52
2021/08/23 07:30:08;;;;;;;;;12.75;10.50;;;;;22.46;50.98;101864.19;5058707;28;45315;-54
2021/08/23 07:32:34;;;;;;;;;12.25;8.00;;;;;22.44;51.22;101868.69;5058044;28;45673;-51
2021/08/23 07:34:59;;;;;;;;;10.75;9.75;;;;;22.42;51.28;101865.28;5058463;28;45368;-48
2021/08/23 07:37:25;;;;;;;;;17.50;11.50;;;;;22.42;51.61;101870.56;5058551;28;45794;-46
2021/08/23 07:39:50;;;;;;;;;15.25;12.00;;;;;22.43;51.40;101872.28;5058388;28;45588;-46
2021/08/23 07:42:15;;;;;;;;;14.75;12.00;;;;;22.43;51.32;101872.28;5039869;28;47406;-47
2021/08/23 07:44:41;;;;;;;;;11.50;10.50;;;;;22.42;51.72;101870.56;5057694;28;45438;-48
2021/08/23 07:47:07;;;;;;;;;7.00;5.75;;;;;22.39;51.50;101863.59;5057102;28;45444;-45
2021/08/23 07:49:34;;;;;;;;;12.00;9.75;;;;;22.38;51.53;101863.69;5058129;28;45473;-48
2021/08/23 07:51:59;;;;;;;;;13.50;8.25;;;;;22.36;51.51;101866.41;5058129;28;45411;-47
2021/08/23 07:54:24;;;;;;;;;10.50;8.75;;;;;22.35;51.33;101862.06;5057611;28;45267;-52
2021/08/23 07:56:50;;;;;;;;;9.25;7.75;;;;;22.35;51.49;101869.09;5058050;28;45242;-50
2021/08/23 07:59:15;;;;;;;;;8.00;7.75;;;;;22.36;51.19;101873.47;5057924;28;45471;-50
2021/08/23 08:01:40;;;;;;;;;8.50;6.75;;;;;22.38;51.39;101874.25;5057558;28;45352;-47
2021/08/23 08:04:06;;;;;;;;;14.50;10.25;;;;;22.37;51.51;101868.13;5057738;28;45322;-46
2021/08/23 08:06:31;;;;;;;;;13.50;11.00;;;;;22.36;51.30;101860.25;5057892;28;45690;-47
2021/08/23 08:08:57;;;;;;;;;12.50;9.00;;;;;22.34;51.04;101862.97;5058141;28;45467;-46
2021/08/23 08:11:22;;;;;;;;;10.25;9.00;;;;;22.34;51.32;101864.75;5039435;28;46195;-46
2021/08/23 08:13:48;;;;;;;;;11.25;9.00;;;;;22.31;51.50;101857.84;5057325;28;45900;-48
2021/08/23 08:16:14;;;;;;;;;12.50;11.75;;;;;22.33;51.19;101870.94;5057605;28;45344;-46
2021/08/23 08:18:39;;;;;;;;;12.00;11.00;;;;;22.33;50.85;101876.22;5057680;28;45605;-45
2021/08/23 08:21:05;;;;;;;;;10.00;10.00;;;;;22.33;51.52;101874.47;5057312;28;46564;-45
2021/08/23 08:23:31;;;;;;;;;12.00;9.50;;;;;22.34;51.60;101877.94;5057803;28;45503;-49
2021/08/23 08:25:56;;;;;;;;;11.00;9.50;;;;;22.32;51.93;101885.13;5057827;28;45424;-50
2021/08/23 08:28:22;;;;;;;;;8.50;8.50;;;;;22.28;51.31;101872.97;5057678;28;45768;-49
2021/08/23 08:30:47;;;;;;;;;11.50;10.00;;;;;22.28;51.39;101873.81;5057178;28;46378;-48
2021/08/23 08:33:14;;;;;;;;;9.50;8.75;;;;;22.29;51.34;101874.69;5057133;28;45544;-49
2021/08/23 08:35:40;;;;;;;;;13.00;10.25;;;;;22.29;51.16;101869.41;5057364;28;45449;-48
2021/08/23 08:38:05;;;;;;;;;14.25;10.50;;;;;22.28;51.43;101870.31;5057526;28;45606;-52
2021/08/23 08:40:31;;;;;;;;;11.50;11.00;;;;;22.28;51.51;101867.69;5057306;28;46238;-53
2021/08/23 08:42:56;;;;;;;;;18.00;13.00;;;;;22.31;51.55;101867.56;5038967;28;45343;-47
2021/08/23 08:45:26;;;;;;;;;14.00;10.00;;;;;22.34;51.30;101857.69;5057286;28;45304;-47
2021/08/23 08:47:53;;;;;;;;;16.00;12.25;;;;;22.40;51.50;101853.91;5056800;28;45399;-51
2021/08/23 08:50:21;;;;;;;;;14.25;10.00;;;;;22.44;51.40;101855.50;5057058;28;46486;-51
2021/08/23 08:52:46;;;;;;;;;15.25;12.25;;;;;22.48;51.43;101857.06;5057193;28;45252;-54
2021/08/23 08:55:13;;;;;;;;;13.00;12.00;;;;;22.52;51.58;101858.66;5057289;28;45394;-52
2021/08/23 08:57:39;;;;;;;;;11.00;8.75;;;;;22.59;51.44;101863.63;5056889;28;45502;-53
2021/08/23 09:00:06;;;;;;;;;15.50;11.50;;;;;22.63;51.25;101865.19;5056178;28;45500;-46
2021/08/23 09:02:32;;;;;;;;;9.75;8.75;;;;;22.66;51.45;101868.53;5057161;28;45329;-54
2021/08/23 09:04:58;;;;;;;;;10.75;8.50;;;;;22.70;51.13;101871.88;5057046;28;45419;-46
2021/08/23 09:07:35;;;;;;;;;12.00;8.25;;;;;22.73;51.05;101874.38;5039095;28;45629;-48
2021/08/23 09:10:00;;;;;;;;;11.75;9.25;;;;;22.74;51.14;101873.47;5057117;28;46532;-50
2021/08/23 09:12:25;;;;;;;;;9.50;9.50;;;;;22.76;50.84;101874.25;5056372;28;45336;-52
2021/08/23 09:14:55;;;;;;;;;9.00;9.00;;;;;22.77;50.85;101875.94;5056870;28;45428;-50
2021/08/23 09:17:26;;;;;;;;;13.00;9.75;;;;;22.79;51.10;101868.78;5056900;28;45477;-49
2021/08/23 09:20:04;;;;;;;;;8.25;8.25;;;;;22.80;51.00;101881.09;5056652;28;46533;-49
2021/08/23 09:22:29;;;;;;;;;11.25;9.50;;;;;22.81;50.46;101871.38;5056538;28;45749;-52
2021/08/23 09:24:55;;;;;;;;;12.75;9.75;;;;;22.81;50.72;101882.78;5055396;28;45233;-53
2021/08/23 09:27:20;;;;;;;;;11.75;10.00;;;;;22.82;50.74;101876.59;5056790;28;45557;-49
2021/08/23 09:29:55;;;;;;;;;12.50;10.00;;;;;22.85;50.73;101883.50;5056127;28;46313;-49
2021/08/23 09:32:30;;;;;;;;;8.75;8.75;;;;;22.84;50.79;101882.66;5056252;28;45328;-53
2021/08/23 09:34:57;;;;;;;;;9.75;8.50;;;;;22.87;51.08;101881.66;5056437;28;45300;-52
2021/08/23 09:37:28;;;;;;;;;10.00;9.00;;;;;22.89;50.69;101885.06;5056640;28;45351;-52
2021/08/23 09:39:54;;;;;;;;;8.00;8.00;;;;;22.89;50.77;101882.44;5056414;28;46690;-55
2021/08/23 09:42:24;;;;;;;;;7.75;7.75;;;;;22.92;50.80;101881.41;5056373;28;45277;-51
2021/08/23 09:44:51;;;;;;;;;13.00;10.75;;;;;22.93;50.55;101877.84;5056437;28;45828;-53
2021/08/23 09:47:18;;;;;;;;;11.50;10.00;;;;;22.95;50.59;101881.28;5056761;28;45442;-56
2021/08/23 09:49:45;;;;;;;;;10.75;9.00;;;;;22.95;50.77;101889.19;5056172;28;45397;-54
2021/08/23 09:52:22;;;;;;;;;10.00;8.50;;;;;22.96;50.51;101881.19;5056117;28;45815;-53
2021/08/23 09:54:59;;;;;;;;;6.75;6.75;;;;;22.97;50.59;101892.63;5056094;28;45359;-55
2021/08/23 09:57:25;;;;;;;;;8.00;8.00;;;;;22.98;50.72;101889.06;5056286;28;45395;-52
2021/08/23 09:59:53;;;;;;;;;7.00;7.00;;;;;22.98;50.71;101889.91;5055875;28;46494;-55
2021/08/23 10:02:21;;;;;;;;;10.75;8.00;;;;;22.99;50.51;101901.31;5056052;28;45811;-48
2021/08/23 10:04:46;;;;;;;;;9.50;6.75;;;;;22.99;50.55;101898.69;5056278;28;45343;-50
2021/08/23 10:07:12;;;;;;;;;8.00;8.00;;;;;23.00;50.50;101892.47;5056359;28;45607;-56
2021/08/23 10:09:41;;;;;;;;;8.50;8.00;;;;;23.00;50.70;101893.34;5055945;28;46639;-52
2021/08/23 10:12:06;;;;;;;;;8.50;8.50;;;;;23.01;50.50;101894.19;5058916;28;45265;-56
2021/08/23 10:14:32;;;;;;;;;8.75;7.50;;;;;23.03;50.33;101894.13;5059799;28;45442;-53
2021/08/23 10:16:58;;;;;;;;;7.75;7.75;;;;;23.03;50.60;101887.03;5059888;28;45543;-54
2021/08/23 10:19:24;;;;;;;;;9.00;9.00;;;;;23.03;50.75;101886.19;5059325;28;47797;-52
2021/08/23 10:21:50;;;;;;;;;11.00;11.00;;;;;23.05;50.97;101890.47;5059404;28;45260;-56
2021/08/23 10:24:30;;;;;;;;;15.75;14.25;;;;;23.07;51.17;101882.44;5059503;28;45356;-56
2021/08/23 10:26:57;;;;;;;;;22.25;20.00;;;;;23.07;51.05;101885.97;5059667;28;45282;-55
2021/08/23 10:29:23;;;;;;;;;20.00;19.50;;;;;23.10;51.47;101884.94;5059162;28;45441;-56
2021/08/23 10:31:48;;;;;;;;;25.25;20.00;;;;;23.11;51.67;101879.56;5059242;28;45862;-59
2021/08/23 10:34:19;;;;;;;;;16.00;16.00;;;;;23.11;51.45;101876.09;5059148;28;45280;-55
2021/08/23 10:36:47;;;;;;;;;14.75;13.00;;;;;23.12;51.58;101888.38;5059437;28;45300;-50
2021/08/23 10:39:24;;;;;;;;;14.25;11.25;;;;;23.12;51.03;101891.84;5059017;28;45614;-57
2021/08/23 10:41:51;;;;;;;;;12.00;10.75;;;;;23.12;51.43;101885.72;5059101;28;45322;-51
2021/08/23 10:44:43;;;;;;;;;13.00;10.25;;;;;23.13;51.38;101888.28;5059215;28;45386;-52
2021/08/23 10:47:11;;;;;;;;;12.00;11.75;;;;;23.13;51.70;101887.44;5056505;28;45237;-51
2021/08/23 10:49:47;;;;;;;;;11.00;11.00;;;;;23.13;51.71;101893.56;5041395;28;46090;-55
2021/08/23 10:52:15;;;;;;;;;9.00;8.50;;;;;23.14;51.66;101894.44;5059235;28;45324;-47
2021/08/23 10:54:43;;;;;;;;;14.25;11.00;;;;;23.14;51.59;101890.00;5058890;28;45244;-51
2021/08/23 10:57:10;;;;;;;;;11.00;10.75;;;;;23.14;51.64;101887.34;5059375;28;45537;-48
2021/08/23 10:59:44;;;;;;;;;12.25;11.50;;;;;23.14;51.50;101890.00;5040648;28;46242;-52
2021/08/23 11:02:15;;;;;;;;;13.75;11.50;;;;;23.15;51.84;101889.06;5058717;28;45315;-52
2021/08/23 11:05:07;;;;;;;;;12.25;11.75;;;;;23.15;51.67;101886.44;5058462;28;45410;-50
2021/08/23 11:07:34;;;;;;;;;12.50;12.50;;;;;23.15;51.92;101886.44;5050579;28;45440;-47
2021/08/23 11:10:22;;;;;;;;;13.00;12.25;;;;;23.15;51.82;101878.50;5058540;28;45537;-49
2021/08/23 11:12:54;;;;;;;;;15.75;15.75;;;;;23.17;51.62;101883.69;5058608;28;45904;-51
2021/08/23 11:15:26;;;;;;;;;11.75;11.75;;;;;23.17;52.09;101875.75;5058446;28;45344;-51
2021/08/23 11:18:01;;;;;;;;;12.00;11.50;;;;;23.19;51.84;101875.69;5058446;28;45470;-50